sensor_id;sensor_type;location;lat;lon;timestamp;P1;durP1;ratioP1;P2;durP2;ratioP2
5456;SDS011;2751;49.802;9.944;2022-10-30T00:01:28;23.37;;;15.80;;
5456;SDS011;2751;49.802;9.944;2022-10-30T00:03:56;29.50;;;14.57;;
5456;SDS011;2751;49.802;9.944;2022-10-30T00:06:23;26.40;;;15.97;;
5456;SDS011;2751;49.802;9.944;2022-10-30T00:08:51;23.27;;;15.30;;
5456;SDS011;2751;49.802;9.944;2022-10-30T00:11:18;23.50;;;15.53;;
5456;SDS011;2751;49.802;9.944;2022-10-30T00:13:45;23.10;;;13.67;;
5456;SDS011;2751;49.802;9.944;2022-10-30T00:16:12;21.50;;;14.20;;
5456;SDS011;2751;49.802;9.944;2022-10-30T00:18:39;32.70;;;14.50;;
5456;SDS011;2751;49.802;9.944;2022-10-30T00:21:07;16.00;;;12.83;;
5456;SDS011;2751;49.802;9.944;2022-10-30T00:23:36;20.27;;;13.00;;
5456;SDS011;2751;49.802;9.944;2022-10-30T00:26:05;19.83;;;13.23;;
5456;SDS011;2751;49.802;9.944;2022-10-30T00:28:33;21.60;;;13.90;;
5456;SDS011;2751;49.802;9.944;2022-10-30T00:31:02;26.73;;;14.47;;
5456;SDS011;2751;49.802;9.944;2022-10-30T00:33:30;28.93;;;14.93;;
5456;SDS011;2751;49.802;9.944;2022-10-30T00:35:58;32.43;;;13.90;;
5456;SDS011;2751;49.802;9.944;2022-10-30T00:38:26;30.27;;;15.30;;
5456;SDS011;2751;49.802;9.944;2022-10-30T00:40:53;24.33;;;14.20;;
5456;SDS011;2751;49.802;9.944;2022-10-30T00:43:28;34.67;;;15.60;;
5456;SDS011;2751;49.802;9.944;2022-10-30T00:45:58;32.97;;;15.60;;
5456;SDS011;2751;49.802;9.944;2022-10-30T00:48:28;26.67;;;14.63;;
5456;SDS011;2751;49.802;9.944;2022-10-30T00:50:54;32.00;;;16.47;;
5456;SDS011;2751;49.802;9.944;2022-10-30T00:53:24;28.93;;;16.67;;
5456;SDS011;2751;49.802;9.944;2022-10-30T00:55:53;30.20;;;15.70;;
5456;SDS011;2751;49.802;9.944;2022-10-30T00:58:23;32.20;;;16.70;;
5456;SDS011;2751;49.802;9.944;2022-10-30T01:00:55;32.47;;;16.13;;
5456;SDS011;2751;49.802;9.944;2022-10-30T01:03:24;76.17;;;19.57;;
5456;SDS011;2751;49.802;9.944;2022-10-30T01:05:53;61.47;;;17.33;;
5456;SDS011;2751;49.802;9.944;2022-10-30T01:08:23;35.50;;;15.97;;
5456;SDS011;2751;49.802;9.944;2022-10-30T01:10:50;36.63;;;17.60;;
5456;SDS011;2751;49.802;9.944;2022-10-30T01:13:18;27.93;;;16.70;;
5456;SDS011;2751;49.802;9.944;2022-10-30T01:15:51;31.27;;;16.90;;
5456;SDS011;2751;49.802;9.944;2022-10-30T01:18:30;49.13;;;16.30;;
5456;SDS011;2751;49.802;9.944;2022-10-30T01:21:10;38.27;;;15.93;;
5456;SDS011;2751;49.802;9.944;2022-10-30T01:23:54;73.03;;;17.50;;
5456;SDS011;2751;49.802;9.944;2022-10-30T01:26:37;57.50;;;16.40;;
5456;SDS011;2751;49.802;9.944;2022-10-30T01:29:14;87.23;;;17.97;;
5456;SDS011;2751;49.802;9.944;2022-10-30T01:31:57;60.30;;;16.80;;
5456;SDS011;2751;49.802;9.944;2022-10-30T01:34:37;103.93;;;17.13;;
5456;SDS011;2751;49.802;9.944;2022-10-30T01:37:13;109.83;;;18.33;;
5456;SDS011;2751;49.802;9.944;2022-10-30T01:39:48;69.63;;;15.63;;
5456;SDS011;2751;49.802;9.944;2022-10-30T01:45:10;71.00;;;15.20;;
5456;SDS011;2751;49.802;9.944;2022-10-30T01:47:45;96.10;;;15.20;;
5456;SDS011;2751;49.802;9.944;2022-10-30T01:50:24;73.93;;;14.90;;
5456;SDS011;2751;49.802;9.944;2022-10-30T01:53:02;69.97;;;15.87;;
5456;SDS011;2751;49.802;9.944;2022-10-30T01:55:40;84.80;;;16.30;;
5456;SDS011;2751;49.802;9.944;2022-10-30T01:58:16;95.93;;;16.50;;
5456;SDS011;2751;49.802;9.944;2022-10-30T02:00:47;97.60;;;17.00;;
5456;SDS011;2751;49.802;9.944;2022-10-30T02:03:20;47.27;;;15.30;;
5456;SDS011;2751;49.802;9.944;2022-10-30T02:05:48;39.03;;;15.40;;
5456;SDS011;2751;49.802;9.944;2022-10-30T02:08:15;73.53;;;17.47;;
5456;SDS011;2751;49.802;9.944;2022-10-30T02:10:43;59.67;;;16.07;;
5456;SDS011;2751;49.802;9.944;2022-10-30T02:13:12;67.73;;;15.80;;
5456;SDS011;2751;49.802;9.944;2022-10-30T02:15:40;35.03;;;14.80;;
5456;SDS011;2751;49.802;9.944;2022-10-30T02:18:07;46.63;;;15.90;;
5456;SDS011;2751;49.802;9.944;2022-10-30T02:20:36;53.37;;;15.07;;
5456;SDS011;2751;49.802;9.944;2022-10-30T02:23:03;48.70;;;14.10;;
5456;SDS011;2751;49.802;9.944;2022-10-30T02:25:30;40.40;;;14.60;;
5456;SDS011;2751;49.802;9.944;2022-10-30T02:27:57;41.33;;;13.87;;
5456;SDS011;2751;49.802;9.944;2022-10-30T02:30:24;42.43;;;14.50;;
5456;SDS011;2751;49.802;9.944;2022-10-30T02:32:51;31.03;;;14.73;;
5456;SDS011;2751;49.802;9.944;2022-10-30T02:35:18;44.83;;;15.10;;
5456;SDS011;2751;49.802;9.944;2022-10-30T02:37:47;55.60;;;15.57;;
5456;SDS011;2751;49.802;9.944;2022-10-30T02:40:16;33.60;;;13.53;;
5456;SDS011;2751;49.802;9.944;2022-10-30T02:42:43;57.57;;;15.80;;
5456;SDS011;2751;49.802;9.944;2022-10-30T02:45:10;22.80;;;14.50;;
5456;SDS011;2751;49.802;9.944;2022-10-30T02:47:37;39.63;;;14.20;;
5456;SDS011;2751;49.802;9.944;2022-10-30T02:50:04;50.87;;;15.70;;
5456;SDS011;2751;49.802;9.944;2022-10-30T02:52:32;26.63;;;14.80;;
5456;SDS011;2751;49.802;9.944;2022-10-30T02:55:00;46.97;;;14.50;;
5456;SDS011;2751;49.802;9.944;2022-10-30T02:57:27;117.77;;;17.57;;
5456;SDS011;2751;49.802;9.944;2022-10-30T02:59:54;148.83;;;17.33;;
5456;SDS011;2751;49.802;9.944;2022-10-30T03:02:21;107.90;;;15.60;;
5456;SDS011;2751;49.802;9.944;2022-10-30T03:04:48;258.50;;;21.03;;
5456;SDS011;2751;49.802;9.944;2022-10-30T03:07:15;67.30;;;15.30;;
5456;SDS011;2751;49.802;9.944;2022-10-30T03:09:42;119.57;;;16.83;;
5456;SDS011;2751;49.802;9.944;2022-10-30T03:12:10;55.10;;;14.60;;
5456;SDS011;2751;49.802;9.944;2022-10-30T03:14:37;174.30;;;16.90;;
5456;SDS011;2751;49.802;9.944;2022-10-30T03:17:04;72.33;;;15.60;;
5456;SDS011;2751;49.802;9.944;2022-10-30T03:19:31;43.90;;;14.30;;
5456;SDS011;2751;49.802;9.944;2022-10-30T03:21:58;98.37;;;15.90;;
5456;SDS011;2751;49.802;9.944;2022-10-30T03:24:25;128.37;;;15.67;;
5456;SDS011;2751;49.802;9.944;2022-10-30T03:26:52;126.53;;;15.77;;
5456;SDS011;2751;49.802;9.944;2022-10-30T03:29:20;77.13;;;12.87;;
5456;SDS011;2751;49.802;9.944;2022-10-30T03:31:47;72.43;;;13.30;;
5456;SDS011;2751;49.802;9.944;2022-10-30T03:34:14;72.80;;;14.10;;
5456;SDS011;2751;49.802;9.944;2022-10-30T03:36:41;96.37;;;15.30;;
5456;SDS011;2751;49.802;9.944;2022-10-30T03:39:08;148.20;;;16.10;;
5456;SDS011;2751;49.802;9.944;2022-10-30T03:41:35;135.97;;;14.60;;
5456;SDS011;2751;49.802;9.944;2022-10-30T03:44:02;111.03;;;14.23;;
5456;SDS011;2751;49.802;9.944;2022-10-30T03:46:30;88.83;;;14.33;;
5456;SDS011;2751;49.802;9.944;2022-10-30T03:48:59;83.13;;;14.60;;
5456;SDS011;2751;49.802;9.944;2022-10-30T03:51:29;95.33;;;14.70;;
5456;SDS011;2751;49.802;9.944;2022-10-30T03:53:56;76.70;;;15.50;;
5456;SDS011;2751;49.802;9.944;2022-10-30T03:56:23;66.53;;;12.60;;
5456;SDS011;2751;49.802;9.944;2022-10-30T03:58:50;69.33;;;13.07;;
5456;SDS011;2751;49.802;9.944;2022-10-30T04:01:17;57.90;;;12.57;;
5456;SDS011;2751;49.802;9.944;2022-10-30T04:03:45;49.50;;;12.60;;
5456;SDS011;2751;49.802;9.944;2022-10-30T04:06:12;51.63;;;12.10;;
5456;SDS011;2751;49.802;9.944;2022-10-30T04:08:39;40.53;;;11.80;;
5456;SDS011;2751;49.802;9.944;2022-10-30T04:11:08;39.03;;;11.33;;
5456;SDS011;2751;49.802;9.944;2022-10-30T04:13:36;41.90;;;11.70;;
5456;SDS011;2751;49.802;9.944;2022-10-30T04:16:03;61.57;;;11.63;;
5456;SDS011;2751;49.802;9.944;2022-10-30T04:18:30;25.20;;;11.63;;
5456;SDS011;2751;49.802;9.944;2022-10-30T04:20:59;42.53;;;11.30;;
5456;SDS011;2751;49.802;9.944;2022-10-30T04:23:26;28.10;;;10.53;;
5456;SDS011;2751;49.802;9.944;2022-10-30T04:25:53;26.20;;;11.40;;
5456;SDS011;2751;49.802;9.944;2022-10-30T04:28:20;38.63;;;12.30;;
5456;SDS011;2751;49.802;9.944;2022-10-30T04:30:47;28.13;;;12.03;;
5456;SDS011;2751;49.802;9.944;2022-10-30T04:33:14;20.00;;;10.30;;
5456;SDS011;2751;49.802;9.944;2022-10-30T04:35:41;25.30;;;10.83;;
5456;SDS011;2751;49.802;9.944;2022-10-30T04:38:10;39.63;;;11.20;;
5456;SDS011;2751;49.802;9.944;2022-10-30T04:40:39;20.77;;;10.70;;
5456;SDS011;2751;49.802;9.944;2022-10-30T04:43:07;28.13;;;11.70;;
5456;SDS011;2751;49.802;9.944;2022-10-30T04:45:36;19.60;;;10.40;;
5456;SDS011;2751;49.802;9.944;2022-10-30T04:48:05;25.63;;;10.00;;
5456;SDS011;2751;49.802;9.944;2022-10-30T04:50:34;22.27;;;11.50;;
5456;SDS011;2751;49.802;9.944;2022-10-30T04:53:01;22.03;;;9.80;;
5456;SDS011;2751;49.802;9.944;2022-10-30T04:55:31;21.30;;;10.60;;
5456;SDS011;2751;49.802;9.944;2022-10-30T04:57:59;19.87;;;9.53;;
5456;SDS011;2751;49.802;9.944;2022-10-30T05:00:27;20.50;;;8.83;;
5456;SDS011;2751;49.802;9.944;2022-10-30T05:02:56;17.30;;;9.17;;
5456;SDS011;2751;49.802;9.944;2022-10-30T05:05:24;24.60;;;10.43;;
5456;SDS011;2751;49.802;9.944;2022-10-30T05:07:51;14.00;;;9.97;;
5456;SDS011;2751;49.802;9.944;2022-10-30T05:10:18;21.40;;;11.70;;
5456;SDS011;2751;49.802;9.944;2022-10-30T05:12:47;22.93;;;10.97;;
5456;SDS011;2751;49.802;9.944;2022-10-30T05:15:14;16.37;;;10.20;;
5456;SDS011;2751;49.802;9.944;2022-10-30T05:17:41;20.93;;;10.00;;
5456;SDS011;2751;49.802;9.944;2022-10-30T05:20:08;29.03;;;10.53;;
5456;SDS011;2751;49.802;9.944;2022-10-30T05:22:35;30.13;;;11.70;;
5456;SDS011;2751;49.802;9.944;2022-10-30T05:25:02;28.90;;;10.57;;
5456;SDS011;2751;49.802;9.944;2022-10-30T05:27:30;21.20;;;10.30;;
5456;SDS011;2751;49.802;9.944;2022-10-30T05:29:58;23.87;;;11.10;;
5456;SDS011;2751;49.802;9.944;2022-10-30T05:32:25;26.30;;;11.27;;
5456;SDS011;2751;49.802;9.944;2022-10-30T05:34:52;20.37;;;10.40;;
5456;SDS011;2751;49.802;9.944;2022-10-30T05:37:22;25.80;;;10.77;;
5456;SDS011;2751;49.802;9.944;2022-10-30T05:39:49;74.27;;;12.10;;
5456;SDS011;2751;49.802;9.944;2022-10-30T05:42:16;38.77;;;11.07;;
5456;SDS011;2751;49.802;9.944;2022-10-30T05:44:43;54.63;;;12.37;;
5456;SDS011;2751;49.802;9.944;2022-10-30T05:47:11;31.07;;;10.70;;
5456;SDS011;2751;49.802;9.944;2022-10-30T05:49:40;35.50;;;11.20;;
5456;SDS011;2751;49.802;9.944;2022-10-30T05:52:07;59.20;;;10.87;;
5456;SDS011;2751;49.802;9.944;2022-10-30T05:54:34;49.57;;;10.73;;
5456;SDS011;2751;49.802;9.944;2022-10-30T05:57:01;50.23;;;11.57;;
5456;SDS011;2751;49.802;9.944;2022-10-30T05:59:28;30.10;;;11.70;;
5456;SDS011;2751;49.802;9.944;2022-10-30T06:01:55;35.73;;;10.80;;
5456;SDS011;2751;49.802;9.944;2022-10-30T06:04:23;28.77;;;11.70;;
5456;SDS011;2751;49.802;9.944;2022-10-30T06:06:50;47.33;;;11.80;;
5456;SDS011;2751;49.802;9.944;2022-10-30T06:09:17;63.37;;;11.90;;
5456;SDS011;2751;49.802;9.944;2022-10-30T06:11:44;66.43;;;11.83;;
5456;SDS011;2751;49.802;9.944;2022-10-30T06:14:11;79.30;;;12.77;;
5456;SDS011;2751;49.802;9.944;2022-10-30T06:16:39;47.63;;;11.73;;
5456;SDS011;2751;49.802;9.944;2022-10-30T06:19:08;63.30;;;12.50;;
5456;SDS011;2751;49.802;9.944;2022-10-30T06:21:37;48.77;;;13.13;;
5456;SDS011;2751;49.802;9.944;2022-10-30T06:24:04;54.77;;;11.67;;
5456;SDS011;2751;49.802;9.944;2022-10-30T06:26:31;32.83;;;11.27;;
5456;SDS011;2751;49.802;9.944;2022-10-30T06:28:59;31.50;;;15.53;;
5456;SDS011;2751;49.802;9.944;2022-10-30T06:31:25;48.07;;;12.43;;
5456;SDS011;2751;49.802;9.944;2022-10-30T06:33:52;34.97;;;10.10;;
5456;SDS011;2751;49.802;9.944;2022-10-30T06:36:19;31.77;;;10.50;;
5456;SDS011;2751;49.802;9.944;2022-10-30T06:38:48;27.37;;;10.40;;
5456;SDS011;2751;49.802;9.944;2022-10-30T06:41:15;22.97;;;11.20;;
5456;SDS011;2751;49.802;9.944;2022-10-30T06:43:42;37.23;;;9.93;;
5456;SDS011;2751;49.802;9.944;2022-10-30T06:46:09;52.30;;;11.60;;
5456;SDS011;2751;49.802;9.944;2022-10-30T06:48:35;25.20;;;11.17;;
5456;SDS011;2751;49.802;9.944;2022-10-30T06:51:02;31.37;;;10.17;;
5456;SDS011;2751;49.802;9.944;2022-10-30T06:53:29;35.83;;;10.77;;
5456;SDS011;2751;49.802;9.944;2022-10-30T06:55:58;43.43;;;10.80;;
5456;SDS011;2751;49.802;9.944;2022-10-30T06:58:26;31.73;;;11.90;;
5456;SDS011;2751;49.802;9.944;2022-10-30T07:00:53;27.47;;;10.97;;
5456;SDS011;2751;49.802;9.944;2022-10-30T07:03:21;19.73;;;10.10;;
5456;SDS011;2751;49.802;9.944;2022-10-30T07:05:47;33.10;;;11.50;;
5456;SDS011;2751;49.802;9.944;2022-10-30T07:08:14;37.17;;;10.77;;
5456;SDS011;2751;49.802;9.944;2022-10-30T07:10:41;30.50;;;11.30;;
5456;SDS011;2751;49.802;9.944;2022-10-30T07:13:10;25.33;;;11.73;;
5456;SDS011;2751;49.802;9.944;2022-10-30T07:15:36;28.43;;;11.67;;
5456;SDS011;2751;49.802;9.944;2022-10-30T07:18:03;22.93;;;11.10;;
5456;SDS011;2751;49.802;9.944;2022-10-30T07:20:31;32.10;;;11.20;;
5456;SDS011;2751;49.802;9.944;2022-10-30T07:23:00;38.80;;;12.33;;
5456;SDS011;2751;49.802;9.944;2022-10-30T07:25:27;32.37;;;11.97;;
5456;SDS011;2751;49.802;9.944;2022-10-30T07:27:55;34.73;;;11.23;;
5456;SDS011;2751;49.802;9.944;2022-10-30T07:30:25;22.53;;;12.33;;
5456;SDS011;2751;49.802;9.944;2022-10-30T07:32:56;41.83;;;11.57;;
5456;SDS011;2751;49.802;9.944;2022-10-30T07:35:29;42.77;;;12.40;;
5456;SDS011;2751;49.802;9.944;2022-10-30T07:38:00;32.90;;;11.53;;
5456;SDS011;2751;49.802;9.944;2022-10-30T07:40:27;46.33;;;12.07;;
5456;SDS011;2751;49.802;9.944;2022-10-30T07:42:54;74.03;;;13.13;;
5456;SDS011;2751;49.802;9.944;2022-10-30T07:45:22;40.90;;;11.47;;
5456;SDS011;2751;49.802;9.944;2022-10-30T07:47:50;48.97;;;11.93;;
5456;SDS011;2751;49.802;9.944;2022-10-30T07:50:17;26.50;;;11.37;;
5456;SDS011;2751;49.802;9.944;2022-10-30T07:52:44;44.07;;;10.67;;
5456;SDS011;2751;49.802;9.944;2022-10-30T07:55:11;43.57;;;11.27;;
5456;SDS011;2751;49.802;9.944;2022-10-30T07:57:39;18.20;;;8.90;;
5456;SDS011;2751;49.802;9.944;2022-10-30T08:00:07;26.80;;;9.73;;
5456;SDS011;2751;49.802;9.944;2022-10-30T08:02:37;32.07;;;9.17;;
5456;SDS011;2751;49.802;9.944;2022-10-30T08:05:04;24.80;;;11.80;;
5456;SDS011;2751;49.802;9.944;2022-10-30T08:07:32;12.90;;;8.47;;
5456;SDS011;2751;49.802;9.944;2022-10-30T08:10:00;28.33;;;8.63;;
5456;SDS011;2751;49.802;9.944;2022-10-30T08:12:28;32.97;;;9.03;;
5456;SDS011;2751;49.802;9.944;2022-10-30T08:14:55;19.37;;;9.17;;
5456;SDS011;2751;49.802;9.944;2022-10-30T08:17:22;15.43;;;9.00;;
5456;SDS011;2751;49.802;9.944;2022-10-30T08:19:50;21.97;;;10.03;;
5456;SDS011;2751;49.802;9.944;2022-10-30T08:22:17;21.43;;;10.20;;
5456;SDS011;2751;49.802;9.944;2022-10-30T08:24:44;26.77;;;15.80;;
5456;SDS011;2751;49.802;9.944;2022-10-30T08:27:10;23.87;;;11.20;;
5456;SDS011;2751;49.802;9.944;2022-10-30T08:29:37;26.20;;;10.67;;
5456;SDS011;2751;49.802;9.944;2022-10-30T08:32:05;21.50;;;10.87;;
5456;SDS011;2751;49.802;9.944;2022-10-30T08:34:32;45.23;;;11.73;;
5456;SDS011;2751;49.802;9.944;2022-10-30T08:37:00;46.67;;;12.60;;
5456;SDS011;2751;49.802;9.944;2022-10-30T08:39:27;32.70;;;11.07;;
5456;SDS011;2751;49.802;9.944;2022-10-30T08:41:55;20.33;;;14.63;;
5456;SDS011;2751;49.802;9.944;2022-10-30T08:44:23;17.57;;;11.60;;
5456;SDS011;2751;49.802;9.944;2022-10-30T08:46:50;24.83;;;11.00;;
5456;SDS011;2751;49.802;9.944;2022-10-30T08:49:17;22.37;;;10.60;;
5456;SDS011;2751;49.802;9.944;2022-10-30T08:51:44;24.40;;;10.20;;
5456;SDS011;2751;49.802;9.944;2022-10-30T08:54:13;22.07;;;10.10;;
5456;SDS011;2751;49.802;9.944;2022-10-30T08:56:39;16.33;;;9.30;;
5456;SDS011;2751;49.802;9.944;2022-10-30T08:59:06;19.90;;;10.57;;
5456;SDS011;2751;49.802;9.944;2022-10-30T09:01:33;83.60;;;12.43;;
5456;SDS011;2751;49.802;9.944;2022-10-30T09:04:01;14.97;;;10.23;;
5456;SDS011;2751;49.802;9.944;2022-10-30T09:06:28;32.47;;;10.80;;
5456;SDS011;2751;49.802;9.944;2022-10-30T09:08:56;13.20;;;9.87;;
5456;SDS011;2751;49.802;9.944;2022-10-30T09:11:32;29.73;;;10.97;;
5456;SDS011;2751;49.802;9.944;2022-10-30T09:14:08;17.53;;;9.20;;
5456;SDS011;2751;49.802;9.944;2022-10-30T09:16:36;27.77;;;11.43;;
5456;SDS011;2751;49.802;9.944;2022-10-30T09:19:03;32.40;;;10.03;;
5456;SDS011;2751;49.802;9.944;2022-10-30T09:21:34;21.77;;;10.50;;
5456;SDS011;2751;49.802;9.944;2022-10-30T09:24:03;12.53;;;10.10;;
5456;SDS011;2751;49.802;9.944;2022-10-30T09:26:56;20.70;;;8.67;;
5456;SDS011;2751;49.802;9.944;2022-10-30T09:29:27;25.00;;;9.30;;
5456;SDS011;2751;49.802;9.944;2022-10-30T09:31:55;19.07;;;10.00;;
5456;SDS011;2751;49.802;9.944;2022-10-30T09:34:22;29.17;;;10.30;;
5456;SDS011;2751;49.802;9.944;2022-10-30T09:36:49;34.33;;;10.10;;
5456;SDS011;2751;49.802;9.944;2022-10-30T09:39:17;12.00;;;10.80;;
5456;SDS011;2751;49.802;9.944;2022-10-30T09:41:53;11.70;;;10.50;;
5456;SDS011;2751;49.802;9.944;2022-10-30T09:44:44;14.53;;;10.70;;
5456;SDS011;2751;49.802;9.944;2022-10-30T09:47:24;13.43;;;11.83;;
5456;SDS011;2751;49.802;9.944;2022-10-30T09:50:05;11.83;;;9.50;;
5456;SDS011;2751;49.802;9.944;2022-10-30T09:52:53;13.47;;;11.30;;
5456;SDS011;2751;49.802;9.944;2022-10-30T09:55:30;12.57;;;10.83;;
5456;SDS011;2751;49.802;9.944;2022-10-30T09:58:05;12.27;;;10.97;;
5456;SDS011;2751;49.802;9.944;2022-10-30T10:00:46;12.10;;;10.80;;
5456;SDS011;2751;49.802;9.944;2022-10-30T10:03:21;12.37;;;10.40;;
5456;SDS011;2751;49.802;9.944;2022-10-30T10:05:59;19.07;;;10.97;;
5456;SDS011;2751;49.802;9.944;2022-10-30T10:08:30;11.70;;;10.23;;
5456;SDS011;2751;49.802;9.944;2022-10-30T10:11:07;13.83;;;12.00;;
5456;SDS011;2751;49.802;9.944;2022-10-30T10:13:40;13.17;;;10.67;;
5456;SDS011;2751;49.802;9.944;2022-10-30T10:16:18;15.07;;;10.77;;
5456;SDS011;2751;49.802;9.944;2022-10-30T10:18:47;12.27;;;10.37;;
5456;SDS011;2751;49.802;9.944;2022-10-30T10:21:22;13.73;;;10.60;;
5456;SDS011;2751;49.802;9.944;2022-10-30T10:23:52;14.27;;;11.07;;
5456;SDS011;2751;49.802;9.944;2022-10-30T10:26:26;13.30;;;10.80;;
5456;SDS011;2751;49.802;9.944;2022-10-30T10:29:05;11.60;;;10.20;;
5456;SDS011;2751;49.802;9.944;2022-10-30T10:32:12;11.33;;;9.90;;
5456;SDS011;2751;49.802;9.944;2022-10-30T10:34:59;10.23;;;9.13;;
5456;SDS011;2751;49.802;9.944;2022-10-30T10:37:48;13.70;;;11.00;;
5456;SDS011;2751;49.802;9.944;2022-10-30T10:40:27;10.37;;;9.37;;
5456;SDS011;2751;49.802;9.944;2022-10-30T10:43:09;9.83;;;8.80;;
5456;SDS011;2751;49.802;9.944;2022-10-30T10:45:47;8.70;;;7.80;;
5456;SDS011;2751;49.802;9.944;2022-10-30T10:48:29;11.30;;;9.37;;
5456;SDS011;2751;49.802;9.944;2022-10-30T10:51:11;13.17;;;11.37;;
5456;SDS011;2751;49.802;9.944;2022-10-30T10:53:42;9.83;;;8.90;;
5456;SDS011;2751;49.802;9.944;2022-10-30T10:56:12;10.07;;;9.17;;
5456;SDS011;2751;49.802;9.944;2022-10-30T10:58:42;11.50;;;10.37;;
5456;SDS011;2751;49.802;9.944;2022-10-30T11:01:16;12.60;;;10.93;;
5456;SDS011;2751;49.802;9.944;2022-10-30T11:03:51;11.83;;;10.60;;
5456;SDS011;2751;49.802;9.944;2022-10-30T11:06:23;12.40;;;10.77;;
5456;SDS011;2751;49.802;9.944;2022-10-30T11:08:53;10.17;;;9.27;;
5456;SDS011;2751;49.802;9.944;2022-10-30T11:11:26;10.97;;;9.87;;
5456;SDS011;2751;49.802;9.944;2022-10-30T11:13:53;9.77;;;8.87;;
5456;SDS011;2751;49.802;9.944;2022-10-30T11:16:24;13.50;;;11.77;;
5456;SDS011;2751;49.802;9.944;2022-10-30T11:18:56;11.67;;;10.60;;
5456;SDS011;2751;49.802;9.944;2022-10-30T11:21:26;11.03;;;9.93;;
5456;SDS011;2751;49.802;9.944;2022-10-30T11:23:57;17.73;;;11.10;;
5456;SDS011;2751;49.802;9.944;2022-10-30T11:26:31;12.50;;;10.30;;
5456;SDS011;2751;49.802;9.944;2022-10-30T11:29:08;9.73;;;8.80;;
5456;SDS011;2751;49.802;9.944;2022-10-30T11:31:38;11.10;;;9.67;;
5456;SDS011;2751;49.802;9.944;2022-10-30T11:36:56;10.43;;;9.53;;
5456;SDS011;2751;49.802;9.944;2022-10-30T11:39:24;9.77;;;8.77;;
5456;SDS011;2751;49.802;9.944;2022-10-30T11:42:03;10.30;;;9.00;;
5456;SDS011;2751;49.802;9.944;2022-10-30T11:44:34;10.33;;;9.33;;
5456;SDS011;2751;49.802;9.944;2022-10-30T11:47:03;11.90;;;9.57;;
5456;SDS011;2751;49.802;9.944;2022-10-30T11:49:35;10.17;;;9.27;;
5456;SDS011;2751;49.802;9.944;2022-10-30T11:52:06;10.00;;;9.00;;
5456;SDS011;2751;49.802;9.944;2022-10-30T11:54:35;10.80;;;9.30;;
5456;SDS011;2751;49.802;9.944;2022-10-30T11:57:10;10.40;;;9.30;;
5456;SDS011;2751;49.802;9.944;2022-10-30T11:59:45;9.57;;;8.60;;
5456;SDS011;2751;49.802;9.944;2022-10-30T12:02:19;10.27;;;9.27;;
5456;SDS011;2751;49.802;9.944;2022-10-30T12:04:52;10.70;;;9.70;;
5456;SDS011;2751;49.802;9.944;2022-10-30T12:07:23;9.60;;;8.77;;
5456;SDS011;2751;49.802;9.944;2022-10-30T12:09:53;11.43;;;8.80;;
5456;SDS011;2751;49.802;9.944;2022-10-30T12:12:22;12.03;;;8.87;;
5456;SDS011;2751;49.802;9.944;2022-10-30T12:14:52;9.13;;;8.33;;
5456;SDS011;2751;49.802;9.944;2022-10-30T12:17:20;9.37;;;8.50;;
5456;SDS011;2751;49.802;9.944;2022-10-30T12:19:49;10.70;;;9.60;;
5456;SDS011;2751;49.802;9.944;2022-10-30T12:22:27;11.00;;;7.80;;
5456;SDS011;2751;49.802;9.944;2022-10-30T12:24:55;10.30;;;9.00;;
5456;SDS011;2751;49.802;9.944;2022-10-30T12:27:24;8.87;;;7.50;;
5456;SDS011;2751;49.802;9.944;2022-10-30T12:29:57;8.97;;;8.00;;
5456;SDS011;2751;49.802;9.944;2022-10-30T12:32:31;9.43;;;7.27;;
5456;SDS011;2751;49.802;9.944;2022-10-30T12:35:15;10.17;;;7.20;;
5456;SDS011;2751;49.802;9.944;2022-10-30T12:38:01;8.90;;;7.63;;
5456;SDS011;2751;49.802;9.944;2022-10-30T12:40:34;8.27;;;6.80;;
5456;SDS011;2751;49.802;9.944;2022-10-30T12:43:04;7.67;;;6.87;;
5456;SDS011;2751;49.802;9.944;2022-10-30T12:45:40;9.63;;;6.90;;
5456;SDS011;2751;49.802;9.944;2022-10-30T12:48:10;9.43;;;7.60;;
5456;SDS011;2751;49.802;9.944;2022-10-30T12:50:46;9.87;;;7.40;;
5456;SDS011;2751;49.802;9.944;2022-10-30T12:53:25;7.63;;;6.67;;
5456;SDS011;2751;49.802;9.944;2022-10-30T12:56:04;9.17;;;7.60;;
5456;SDS011;2751;49.802;9.944;2022-10-30T12:58:38;8.57;;;6.83;;
5456;SDS011;2751;49.802;9.944;2022-10-30T13:01:11;9.33;;;6.60;;
5456;SDS011;2751;49.802;9.944;2022-10-30T13:03:49;7.93;;;6.87;;
5456;SDS011;2751;49.802;9.944;2022-10-30T13:06:23;7.27;;;6.57;;
5456;SDS011;2751;49.802;9.944;2022-10-30T13:08:58;13.03;;;7.70;;
5456;SDS011;2751;49.802;9.944;2022-10-30T13:11:36;10.70;;;7.60;;
5456;SDS011;2751;49.802;9.944;2022-10-30T13:14:10;9.30;;;6.73;;
5456;SDS011;2751;49.802;9.944;2022-10-30T13:16:41;10.00;;;7.40;;
5456;SDS011;2751;49.802;9.944;2022-10-30T13:19:08;11.23;;;7.60;;
5456;SDS011;2751;49.802;9.944;2022-10-30T13:21:40;10.43;;;7.30;;
5456;SDS011;2751;49.802;9.944;2022-10-30T13:24:14;8.33;;;7.03;;
5456;SDS011;2751;49.802;9.944;2022-10-30T13:26:48;9.97;;;7.33;;
5456;SDS011;2751;49.802;9.944;2022-10-30T13:29:22;8.70;;;7.90;;
5456;SDS011;2751;49.802;9.944;2022-10-30T13:31:57;10.03;;;7.07;;
5456;SDS011;2751;49.802;9.944;2022-10-30T13:34:41;8.07;;;7.37;;
5456;SDS011;2751;49.802;9.944;2022-10-30T13:37:17;10.30;;;8.90;;
5456;SDS011;2751;49.802;9.944;2022-10-30T13:39:53;18.30;;;12.90;;
5456;SDS011;2751;49.802;9.944;2022-10-30T13:42:32;10.37;;;8.07;;
5456;SDS011;2751;49.802;9.944;2022-10-30T13:45:18;8.63;;;7.10;;
5456;SDS011;2751;49.802;9.944;2022-10-30T13:48:05;9.50;;;7.47;;
5456;SDS011;2751;49.802;9.944;2022-10-30T13:50:39;9.60;;;7.03;;
5456;SDS011;2751;49.802;9.944;2022-10-30T13:53:25;10.53;;;8.70;;
5456;SDS011;2751;49.802;9.944;2022-10-30T13:55:55;9.57;;;7.53;;
5456;SDS011;2751;49.802;9.944;2022-10-30T13:58:24;9.17;;;7.63;;
5456;SDS011;2751;49.802;9.944;2022-10-30T14:00:59;11.57;;;8.63;;
5456;SDS011;2751;49.802;9.944;2022-10-30T14:03:36;8.43;;;7.53;;
5456;SDS011;2751;49.802;9.944;2022-10-30T14:06:20;9.70;;;6.27;;
5456;SDS011;2751;49.802;9.944;2022-10-30T14:09:02;18.93;;;10.00;;
5456;SDS011;2751;49.802;9.944;2022-10-30T14:11:37;16.80;;;9.10;;
5456;SDS011;2751;49.802;9.944;2022-10-30T14:14:22;12.20;;;7.37;;
5456;SDS011;2751;49.802;9.944;2022-10-30T14:17:08;13.83;;;8.30;;
5456;SDS011;2751;49.802;9.944;2022-10-30T14:22:42;12.30;;;7.27;;
5456;SDS011;2751;49.802;9.944;2022-10-30T14:25:31;14.80;;;8.90;;
5456;SDS011;2751;49.802;9.944;2022-10-30T14:27:58;18.97;;;10.87;;
5456;SDS011;2751;49.802;9.944;2022-10-30T14:30:25;17.33;;;8.63;;
5456;SDS011;2751;49.802;9.944;2022-10-30T14:32:53;16.13;;;7.20;;
5456;SDS011;2751;49.802;9.944;2022-10-30T14:35:36;14.20;;;6.90;;
5456;SDS011;2751;49.802;9.944;2022-10-30T14:43:52;10.00;;;6.30;;
5456;SDS011;2751;49.802;9.944;2022-10-30T14:46:33;7.30;;;5.70;;
5456;SDS011;2751;49.802;9.944;2022-10-30T14:49:11;11.10;;;6.13;;
5456;SDS011;2751;49.802;9.944;2022-10-30T14:51:53;9.60;;;5.87;;
5456;SDS011;2751;49.802;9.944;2022-10-30T14:55:01;8.20;;;5.43;;
5456;SDS011;2751;49.802;9.944;2022-10-30T14:57:47;9.00;;;5.80;;
5456;SDS011;2751;49.802;9.944;2022-10-30T15:00:27;8.23;;;6.70;;
5456;SDS011;2751;49.802;9.944;2022-10-30T15:03:03;14.00;;;7.77;;
5456;SDS011;2751;49.802;9.944;2022-10-30T15:05:39;13.50;;;9.43;;
5456;SDS011;2751;49.802;9.944;2022-10-30T15:14:11;9.93;;;7.20;;
5456;SDS011;2751;49.802;9.944;2022-10-30T15:16:43;14.90;;;7.83;;
5456;SDS011;2751;49.802;9.944;2022-10-30T15:19:14;13.63;;;7.27;;
5456;SDS011;2751;49.802;9.944;2022-10-30T15:21:43;12.27;;;7.87;;
5456;SDS011;2751;49.802;9.944;2022-10-30T15:24:13;10.70;;;7.47;;
5456;SDS011;2751;49.802;9.944;2022-10-30T15:26:43;10.57;;;6.50;;
5456;SDS011;2751;49.802;9.944;2022-10-30T15:29:17;12.37;;;8.63;;
5456;SDS011;2751;49.802;9.944;2022-10-30T15:31:55;13.07;;;9.23;;
5456;SDS011;2751;49.802;9.944;2022-10-30T15:34:25;10.93;;;8.90;;
5456;SDS011;2751;49.802;9.944;2022-10-30T15:36:52;12.93;;;7.77;;